Time;durP1;ratioP1;P1;durP2;ratioP2;P2;SDS_P1;SDS_P2;PMS_P1;PMS_P2;Temp;Humidity;BMP_temperature;BMP_pressure;BME280_temperature;BME280_humidity;BME280_pressure;Samples;Min_cycle;Max_cycle;Signal;HPM_P1;HPM_P2
2022/08/05 00:00:32;;;;;;;1.47;0.90;;;21.80;98.20;;;;;;6156952;23;20481;-77
2022/08/05 00:03:02;;;;;;;1.47;0.90;;;21.80;98.20;;;;;;6139948;23;20456;-76
2022/08/05 00:05:29;;;;;;;1.50;0.90;;;21.80;98.20;;;;;;6168655;23;20702;-75
2022/08/05 00:07:56;;;;;;;1.50;0.90;;;21.80;98.20;;;;;;6144090;23;20807;-77
2022/08/05 00:10:25;;;;;;;1.50;0.90;;;21.90;98.20;;;;;;6157081;23;20433;-77
2022/08/05 00:12:56;;;;;;;1.47;0.90;;;21.80;98.20;;;;;;6141839;23;20451;-78
2022/08/05 00:15:24;;;;;;;1.50;0.90;;;21.80;98.20;;;;;;6156828;23;20480;-76
2022/08/05 00:17:58;;;;;;;1.47;0.90;;;21.80;98.20;;;;;;6167235;23;20413;-78
2022/08/05 00:20:26;;;;;;;1.50;0.90;;;21.80;98.20;;;;;;6169964;23;20801;-76
2022/08/05 00:22:53;;;;;;;1.47;0.90;;;21.80;98.20;;;;;;6140736;23;20516;-77
2022/08/05 00:25:20;;;;;;;1.50;0.90;;;21.80;98.20;;;;;;6157540;23;20449;-77
2022/08/05 00:27:47;;;;;;;1.47;0.90;;;21.70;98.20;;;;;;6155455;23;20954;-76
2022/08/05 00:30:14;;;;;;;1.50;0.90;;;21.70;98.20;;;;;;6157413;23;20428;-76
2022/08/05 00:32:44;;;;;;;1.50;0.83;;;21.70;98.20;;;;;;6139475;23;20540;-76
2022/08/05 00:35:11;;;;;;;1.47;0.97;;;21.70;98.20;;;;;;6157053;23;20912;-77
2022/08/05 00:37:40;;;;;;;1.50;0.90;;;21.60;98.20;;;;;;6141239;23;20449;-77
2022/08/05 00:40:08;;;;;;;1.50;1.00;;;21.50;98.20;;;;;;6155488;23;20840;-77
2022/08/05 00:42:38;;;;;;;1.50;0.90;;;21.50;98.20;;;;;;6139102;23;20448;-78
2022/08/05 00:45:09;;;;;;;1.47;0.83;;;21.50;98.20;;;;;;6156079;23;20451;-76
2022/08/05 00:47:37;;;;;;;1.50;0.90;;;21.40;98.20;;;;;;6141339;23;20468;-76
2022/08/05 00:50:04;;;;;;;1.47;0.90;;;21.40;98.20;;;;;;6166277;23;20453;-76
2022/08/05 00:52:31;;;;;;;1.50;0.93;;;21.40;98.20;;;;;;6139921;23;20453;-76
2022/08/05 00:55:11;;;;;;;1.47;0.90;;;21.40;98.20;;;;;;6157209;23;20452;-78
2022/08/05 00:57:38;;;;;;;1.43;0.90;;;21.40;98.20;;;;;;6144425;23;20444;-77
2022/08/05 01:00:07;;;;;;;1.47;0.90;;;21.30;98.20;;;;;;6165588;23;20499;-77
2022/08/05 01:02:34;;;;;;;1.50;0.90;;;21.30;98.20;;;;;;6139625;23;20456;-76
2022/08/05 01:05:01;;;;;;;1.47;0.90;;;21.30;98.20;;;;;;6166738;23;20498;-77
2022/08/05 01:07:28;;;;;;;1.50;0.90;;;21.30;98.20;;;;;;6143168;23;21069;-76
2022/08/05 01:09:55;;;;;;;1.50;0.90;;;21.10;98.20;;;;;;6157426;23;20425;-77
2022/08/05 01:12:25;;;;;;;1.50;0.90;;;21.10;98.20;;;;;;6143582;23;20460;-76
2022/08/05 01:15:01;;;;;;;1.50;0.90;;;21.00;98.20;;;;;;6159693;23;20484;-77
2022/08/05 01:17:32;;;;;;;1.47;0.90;;;21.00;98.20;;;;;;6165828;23;20570;-76
2022/08/05 01:20:12;;;;;;;1.43;0.90;;;20.90;98.20;;;;;;6157420;23;20826;-77
2022/08/05 01:22:49;;;;;;;1.50;0.90;;;20.90;98.20;;;;;;6139672;23;20452;-77
2022/08/05 01:25:48;;;;;;;1.50;0.90;;;20.80;98.20;;;;;;6157627;23;20483;-76
2022/08/05 01:28:26;;;;;;;1.50;0.90;;;20.80;98.20;;;;;;6157556;23;20423;-77
2022/08/05 01:30:59;;;;;;;1.50;0.87;;;20.80;98.20;;;;;;6140491;23;20437;-76
2022/08/05 01:33:33;;;;;;;1.47;0.80;;;20.80;98.20;;;;;;6140440;23;20780;-76
2022/08/05 01:36:03;;;;;;;1.47;0.90;;;20.80;98.20;;;;;;6135645;23;20397;-77
2022/08/05 01:38:32;;;;;;;1.50;0.90;;;20.80;98.20;;;;;;6150277;23;20417;-77
2022/08/05 01:41:00;;;;;;;1.47;0.90;;;20.80;98.20;;;;;;6150252;23;20459;-75
2022/08/05 01:43:30;;;;;;;1.50;0.90;;;20.70;98.20;;;;;;6160875;23;20423;-76
2022/08/05 01:45:58;;;;;;;1.50;0.90;;;20.60;98.20;;;;;;6136141;23;20484;-75
2022/08/05 01:48:27;;;;;;;1.50;0.90;;;20.60;98.20;;;;;;6150604;23;20471;-76
2022/08/05 01:50:56;;;;;;;1.50;0.90;;;20.60;98.20;;;;;;6134458;23;20469;-75
2022/08/05 01:53:24;;;;;;;1.50;0.90;;;20.60;98.20;;;;;;6150058;23;20435;-76
2022/08/05 01:55:57;;;;;;;1.47;0.90;;;20.60;98.20;;;;;;6136271;23;20448;-75
2022/08/05 01:58:27;;;;;;;1.50;0.90;;;20.60;98.20;;;;;;6150326;23;20483;-77
2022/08/05 02:00:58;;;;;;;1.50;0.90;;;20.60;98.20;;;;;;6136097;23;20448;-77
2022/08/05 02:03:28;;;;;;;1.50;0.90;;;20.60;98.20;;;;;;6146955;23;20439;-78
2022/08/05 02:05:56;;;;;;;1.47;0.90;;;20.60;98.20;;;;;;6137971;23;20445;-78
2022/08/05 02:08:23;;;;;;;1.50;0.90;;;20.60;98.20;;;;;;6150627;23;20428;-79
2022/08/05 02:10:56;;;;;;;1.43;0.90;;;20.60;98.20;;;;;;6137119;23;20528;-77
2022/08/05 02:13:32;;;;;;;1.47;0.90;;;20.50;98.20;;;;;;6152018;23;20448;-77
2022/08/05 02:16:04;;;;;;;1.50;0.90;;;20.50;98.20;;;;;;6153904;23;20440;-78
2022/08/05 02:18:37;;;;;;;1.50;0.90;;;20.50;98.20;;;;;;6155476;23;20831;-78
2022/08/05 02:21:09;;;;;;;1.43;0.90;;;20.40;98.20;;;;;;6138640;23;20531;-79
2022/08/05 02:23:40;;;;;;;1.50;0.90;;;20.40;98.20;;;;;;6152169;23;20988;-77
2022/08/05 02:26:10;;;;;;;1.50;0.90;;;20.40;98.20;;;;;;6137962;23;20434;-78
2022/08/05 02:28:41;;;;;;;1.50;0.90;;;20.40;98.20;;;;;;6151212;23;20448;-77
2022/08/05 02:31:14;;;;;;;1.50;0.90;;;20.30;98.20;;;;;;6150745;23;20524;-77
2022/08/05 02:33:47;;;;;;;1.50;0.90;;;20.30;98.20;;;;;;6152448;23;20484;-78
2022/08/05 02:36:19;;;;;;;1.43;0.90;;;20.30;98.20;;;;;;6137108;23;20444;-78
2022/08/05 02:38:48;;;;;;;1.47;0.90;;;20.20;98.20;;;;;;6150914;23;20409;-77
2022/08/05 02:41:16;;;;;;;1.50;0.90;;;20.30;98.20;;;;;;6136179;23;20791;-78
2022/08/05 02:43:46;;;;;;;1.50;0.90;;;20.30;98.20;;;;;;6150333;23;20503;-76
2022/08/05 02:46:16;;;;;;;1.43;0.90;;;20.30;98.20;;;;;;6136277;23;20511;-77
2022/08/05 02:48:45;;;;;;;1.47;0.90;;;20.40;98.20;;;;;;6161448;23;20417;-76
2022/08/05 02:51:13;;;;;;;1.50;1.10;;;20.40;98.20;;;;;;6148150;23;20631;-75
2022/08/05 02:53:42;;;;;;;1.47;0.90;;;20.40;98.20;;;;;;6151865;23;20435;-75
2022/08/05 02:56:11;;;;;;;1.47;0.90;;;20.40;98.20;;;;;;6135930;23;20455;-75
2022/08/05 02:58:40;;;;;;;1.47;0.90;;;20.40;98.20;;;;;;6160918;23;20500;-74
2022/08/05 03:01:10;;;;;;;1.43;0.90;;;20.40;98.20;;;;;;6149232;23;20905;-75
2022/08/05 03:03:41;;;;;;;1.50;0.90;;;20.30;98.20;;;;;;6149476;23;20405;-72
2022/08/05 03:06:11;;;;;;;1.90;1.63;;;20.20;98.20;;;;;;6135567;23;20451;-71
2022/08/05 03:08:39;;;;;;;1.50;0.90;;;20.00;98.20;;;;;;6149578;23;20475;-73
2022/08/05 03:11:17;;;;;;;1.50;0.90;;;19.80;98.20;;;;;;6134036;23;20501;-74
2022/08/05 03:13:45;;;;;;;1.50;0.90;;;19.70;98.20;;;;;;6150731;23;20488;-74
2022/08/05 03:16:12;;;;;;;1.47;0.90;;;19.70;98.20;;;;;;6135270;23;20471;-74
2022/08/05 03:18:40;;;;;;;1.47;0.90;;;19.70;98.20;;;;;;6151588;23;20448;-77
2022/08/05 03:21:07;;;;;;;1.50;1.00;;;19.80;98.20;;;;;;6140419;23;20918;-76
2022/08/05 03:23:36;;;;;;;1.50;0.90;;;19.80;98.20;;;;;;6153648;23;20417;-76
2022/08/05 03:26:03;;;;;;;1.50;0.97;;;19.70;98.20;;;;;;6154222;23;20440;-76
2022/08/05 03:28:31;;;;;;;1.50;0.90;;;19.70;98.20;;;;;;6150973;23;20479;-73
2022/08/05 03:31:00;;;;;;;1.50;0.90;;;19.80;98.20;;;;;;6148720;23;20441;-74
2022/08/05 03:33:28;;;;;;;1.50;0.90;;;19.90;98.20;;;;;;6148853;23;20487;-74
2022/08/05 03:35:58;;;;;;;1.50;0.90;;;20.00;98.20;;;;;;6135251;23;20710;-77
2022/08/05 03:38:26;;;;;;;1.50;0.90;;;20.00;98.20;;;;;;6149135;23;20423;-77
2022/08/05 03:40:53;;;;;;;1.50;0.90;;;20.10;98.20;;;;;;6135927;23;20441;-75
2022/08/05 03:43:23;;;;;;;1.50;0.90;;;20.20;98.20;;;;;;6157868;23;20919;-75
2022/08/05 03:45:51;;;;;;;1.47;0.90;;;20.20;98.20;;;;;;6151163;23;20779;-75
2022/08/05 03:48:19;;;;;;;1.50;0.90;;;20.30;98.20;;;;;;6151547;23;20424;-76
2022/08/05 03:50:52;;;;;;;1.63;1.43;;;20.30;98.20;;;;;;6148883;23;20732;-77
2022/08/05 03:53:34;;;;;;;1.47;0.90;;;20.40;98.20;;;;;;6149917;23;20499;-77
2022/08/05 03:56:06;;;;;;;1.50;0.90;;;20.40;98.20;;;;;;6160662;23;20571;-75
2022/08/05 03:58:36;;;;;;;1.50;1.00;;;20.40;98.20;;;;;;6151294;23;20414;-75
2022/08/05 04:01:07;;;;;;;1.50;0.90;;;20.40;98.20;;;;;;6135382;23;21092;-76
2022/08/05 04:03:36;;;;;;;1.43;0.93;;;20.40;98.20;;;;;;6148912;23;20428;-74
2022/08/05 04:06:05;;;;;;;1.47;0.90;;;20.50;98.20;;;;;;6136755;23;20536;-76
2022/08/05 04:08:34;;;;;;;1.47;0.90;;;20.50;98.20;;;;;;6152111;23;20428;-76
2022/08/05 04:11:02;;;;;;;1.50;0.90;;;20.50;98.20;;;;;;6152542;23;20487;-78
2022/08/05 04:13:30;;;;;;;1.50;0.90;;;20.50;98.20;;;;;;6156117;23;20499;-77
2022/08/05 04:15:57;;;;;;;1.50;0.93;;;20.50;98.20;;;;;;6136694;23;20428;-76
2022/08/05 04:18:25;;;;;;;1.50;0.90;;;20.60;98.20;;;;;;6151739;23;20417;-76
2022/08/05 04:20:56;;;;;;;1.50;0.90;;;20.60;98.20;;;;;;6151339;23;20458;-77
2022/08/05 04:23:25;;;;;;;1.50;0.90;;;20.60;98.20;;;;;;6162243;23;20421;-76
2022/08/05 04:25:54;;;;;;;1.50;0.90;;;20.60;98.20;;;;;;6139406;23;21002;-79
2022/08/05 04:28:21;;;;;;;1.50;0.90;;;20.60;98.20;;;;;;6162036;23;20983;-77
2022/08/05 04:30:49;;;;;;;1.50;0.90;;;20.50;98.20;;;;;;6138058;23;20448;-77
2022/08/05 04:33:16;;;;;;;1.50;0.90;;;20.50;98.20;;;;;;6147402;23;20421;-77
2022/08/05 04:35:43;;;;;;;1.47;0.90;;;20.50;98.20;;;;;;6151393;23;20417;-77
2022/08/05 04:38:11;;;;;;;1.50;0.90;;;20.50;98.20;;;;;;6151022;23;20421;-75
2022/08/05 04:40:40;;;;;;;1.47;0.90;;;20.50;98.20;;;;;;6154443;23;20420;-75
2022/08/05 04:43:08;;;;;;;1.50;0.90;;;20.50;98.20;;;;;;6152037;23;20448;-74
2022/08/05 04:45:36;;;;;;;1.50;0.90;;;20.50;98.20;;;;;;6151381;23;20511;-75
2022/08/05 04:48:05;;;;;;;1.50;0.90;;;20.40;98.20;;;;;;6137918;23;20449;-77
2022/08/05 04:50:32;;;;;;;1.70;1.57;;;20.40;98.20;;;;;;6157143;23;20424;-78
2022/08/05 04:52:59;;;;;;;1.50;0.90;;;20.40;98.20;;;;;;6135678;23;20456;-79
2022/08/05 04:55:26;;;;;;;1.43;0.90;;;20.40;98.20;;;;;;6156092;23;20804;-77
2022/08/05 04:57:53;;;;;;;1.47;0.90;;;20.40;98.20;;;;;;6141634;23;20452;-77
2022/08/05 05:00:22;;;;;;;1.50;0.90;;;20.40;98.20;;;;;;6168457;23;20419;-78
2022/08/05 05:02:50;;;;;;;1.50;0.90;;;20.40;98.20;;;;;;6164325;23;20448;-75
2022/08/05 05:05:17;;;;;;;1.43;0.90;;;20.40;98.20;;;;;;6166529;23;20762;-77
2022/08/05 05:08:04;;;;;;;1.47;0.90;;;20.50;98.20;;;;;;6143448;23;20455;-76
2022/08/05 05:10:32;;;;;;;1.50;0.90;;;20.50;98.20;;;;;;6156543;23;20428;-76
2022/08/05 05:13:00;;;;;;;1.50;1.00;;;20.50;98.20;;;;;;6154370;23;20481;-75
2022/08/05 05:15:28;;;;;;;1.50;0.90;;;20.50;98.20;;;;;;6166125;23;20848;-76
2022/08/05 05:17:55;;;;;;;1.50;1.00;;;20.50;98.20;;;;;;6155098;23;20421;-77
2022/08/05 05:20:22;;;;;;;1.47;0.90;;;20.50;98.20;;;;;;6153302;23;20430;-76
2022/08/05 05:22:49;;;;;;;1.47;0.90;;;20.50;98.20;;;;;;6154001;23;20992;-77
2022/08/05 05:25:26;;;;;;;1.50;0.90;;;20.50;98.20;;;;;;6156435;23;20903;-77
2022/08/05 05:27:59;;;;;;;1.50;0.90;;;20.60;98.20;;;;;;6158907;23;20436;-78
2022/08/05 05:30:28;;;;;;;1.50;0.90;;;20.60;98.20;;;;;;6157299;23;20801;-76
2022/08/05 05:32:56;;;;;;;1.43;0.90;;;20.70;98.20;;;;;;6140330;23;20512;-76
2022/08/05 05:35:24;;;;;;;1.50;0.90;;;20.70;98.20;;;;;;6154815;23;20435;-75
2022/08/05 05:37:53;;;;;;;1.50;0.90;;;20.60;98.20;;;;;;6151800;23;20544;-77
2022/08/05 05:40:21;;;;;;;1.50;0.90;;;20.70;98.20;;;;;;6156203;23;20425;-75
2022/08/05 05:42:49;;;;;;;1.50;0.90;;;20.70;98.20;;;;;;6152130;23;20494;-76
2022/08/05 05:45:17;;;;;;;1.47;0.90;;;20.70;98.20;;;;;;6154420;23;20428;-75
2022/08/05 05:47:46;;;;;;;1.50;0.90;;;20.70;98.20;;;;;;6154874;23;20421;-76
2022/08/05 05:50:15;;;;;;;1.50;0.90;;;20.80;98.20;;;;;;6156321;23;20420;-76
2022/08/05 05:52:43;;;;;;;1.50;0.93;;;20.80;98.20;;;;;;6141751;23;20459;-77
2022/08/05 05:55:12;;;;;;;1.50;0.90;;;20.80;98.20;;;;;;6157665;23;20425;-75
2022/08/05 05:57:41;;;;;;;1.43;0.90;;;20.80;98.20;;;;;;6144828;23;20512;-76
2022/08/05 06:00:11;;;;;;;1.50;0.90;;;20.80;98.20;;;;;;6160619;23;20515;-78
2022/08/05 06:02:38;;;;;;;1.50;0.90;;;20.80;98.20;;;;;;6171353;23;20433;-78
2022/08/05 06:05:09;;;;;;;1.50;1.00;;;20.70;98.20;;;;;;6161085;23;20971;-76
2022/08/05 06:07:37;;;;;;;1.50;0.90;;;20.70;98.20;;;;;;6159337;23;20437;-76
2022/08/05 06:10:06;;;;;;;1.50;0.90;;;20.70;98.20;;;;;;6157139;23;20504;-76
2022/08/05 06:12:36;;;;;;;1.50;0.90;;;20.70;98.20;;;;;;6168432;23;20445;-77
2022/08/05 06:15:05;;;;;;;1.47;0.90;;;20.70;98.20;;;;;;6159789;23;20416;-77
2022/08/05 06:17:32;;;;;;;1.50;0.90;;;20.80;98.20;;;;;;6160309;23;20435;-77
2022/08/05 06:20:01;;;;;;;1.47;0.90;;;20.70;98.20;;;;;;6161186;23;20479;-76
2022/08/05 06:22:35;;;;;;;1.43;0.90;;;20.70;98.20;;;;;;6150115;23;20487;-77
2022/08/05 06:25:09;;;;;;;1.47;0.90;;;20.70;98.20;;;;;;6129839;23;21223;-77
2022/08/05 06:27:36;;;;;;;1.50;0.90;;;20.70;98.20;;;;;;6115503;23;20512;-77
2022/08/05 06:30:06;;;;;;;1.50;0.90;;;20.60;98.20;;;;;;6130853;23;20508;-78
2022/08/05 06:32:58;;;;;;;1.47;0.90;;;20.60;98.20;;;;;;6140967;23;20437;-78
2022/08/05 06:35:26;;;;;;;1.50;0.90;;;20.60;98.20;;;;;;6116826;23;20432;-78
2022/08/05 06:37:57;;;;;;;1.47;0.90;;;20.60;98.20;;;;;;6140886;23;20472;-77
2022/08/05 06:40:24;;;;;;;1.50;0.90;;;20.60;98.20;;;;;;6125614;23;20414;-77
2022/08/05 06:49:44;;;;;;;1.50;0.90;;;20.60;98.20;;;;;;6139019;23;20406;-76
2022/08/05 06:59:11;;;;;;;1.43;0.90;;;20.50;98.20;;;;;;6137778;23;20438;-78
2022/08/05 07:28:43;;;;;;;1.67;1.33;;;19.90;98.20;;;;;;5974560;23;21004;-77
2022/08/05 07:31:56;;;;;;;1.50;0.90;;;19.80;98.20;;;;;;6004087;23;20552;-75
2022/08/05 07:38:08;;;;;;;1.50;1.00;;;19.70;98.20;;;;;;6092789;23;20445;-79
2022/08/05 07:44:25;;;;;;;1.50;0.90;;;19.70;98.20;;;;;;6099858;23;20425;-79
2022/08/05 07:50:13;;;;;;;1.50;0.90;;;19.70;98.20;;;;;;6141986;23;20425;-79
2022/08/05 07:53:10;;;;;;;1.50;1.13;;;19.60;98.20;;;;;;6142114;23;20480;-78
2022/08/05 07:55:53;;;;;;;1.60;1.20;;;19.60;98.20;;;;;;6132525;23;20429;-78
2022/08/05 07:58:42;;;;;;;1.50;0.90;;;19.60;98.20;;;;;;6087491;23;20639;-77
2022/08/05 08:01:47;;;;;;;1.50;0.93;;;19.60;98.20;;;;;;6130862;23;20484;-76
2022/08/05 08:04:20;;;;;;;1.50;0.90;;;19.70;98.20;;;;;;6154379;23;20485;-78
2022/08/05 08:06:57;;;;;;;1.60;1.50;;;19.70;98.20;;;;;;6142909;23;20444;-77
2022/08/05 08:09:29;;;;;;;1.50;0.90;;;19.70;98.20;;;;;;6143061;23;20433;-76
2022/08/05 08:11:58;;;;;;;1.80;1.57;;;19.60;98.20;;;;;;6130290;23;20938;-77
2022/08/05 08:14:36;;;;;;;2.93;2.60;;;19.50;98.20;;;;;;6152256;23;20421;-76
2022/08/05 08:17:10;;;;;;;1.50;0.97;;;19.50;98.20;;;;;;6133263;23;20510;-79
2022/08/05 08:19:48;;;;;;;1.50;0.90;;;19.40;98.20;;;;;;6149498;23;20467;-77
2022/08/05 08:26:04;;;;;;;1.50;0.90;;;19.30;98.20;;;;;;6125575;23;20842;-77
2022/08/05 08:28:32;;;;;;;1.50;0.90;;;19.20;98.20;;;;;;6133418;23;20729;-81
2022/08/05 08:31:00;;;;;;;1.50;0.90;;;19.10;98.20;;;;;;6129369;23;20803;-77
2022/08/05 08:33:29;;;;;;;1.50;1.00;;;19.10;98.20;;;;;;6162555;23;20422;-79
2022/08/05 08:36:00;;;;;;;1.60;1.20;;;19.10;98.20;;;;;;6129544;23;20447;-78
2022/08/05 08:38:29;;;;;;;1.60;1.10;;;19.10;98.20;;;;;;6152986;23;20413;-78
2022/08/05 08:44:23;;;;;;;2.53;1.33;;;19.00;98.20;;;;;;6142463;23;20979;-76
2022/08/05 08:47:04;;;;;;;1.60;1.10;;;18.90;98.20;;;;;;6136650;23;20445;-78
2022/08/05 08:53:10;;;;;;;1.50;1.00;;;18.80;98.20;;;;;;6043121;23;20448;-76
2022/08/05 08:59:40;;;;;;;1.50;0.90;;;18.90;98.20;;;;;;6090724;23;20429;-78
2022/08/05 09:02:33;;;;;;;1.50;1.00;;;19.00;98.20;;;;;;6039802;23;20456;-81
2022/08/05 09:05:14;;;;;;;1.50;0.90;;;18.90;98.20;;;;;;6145264;23;20410;-78
2022/08/05 09:07:59;;;;;;;1.50;0.90;;;18.80;98.20;;;;;;6142010;23;20445;-77
2022/08/05 09:10:39;;;;;;;1.50;0.90;;;18.80;98.20;;;;;;6133832;23;20433;-80
2022/08/05 09:13:18;;;;;;;1.50;0.90;;;18.80;98.20;;;;;;6143254;23;20437;-79
2022/08/05 09:16:22;;;;;;;1.50;0.90;;;18.80;98.20;;;;;;6143788;23;20429;-79
2022/08/05 09:19:45;;;;;;;1.50;0.90;;;18.90;98.20;;;;;;6142398;23;20504;-79
2022/08/05 09:25:37;;;;;;;1.50;0.90;;;19.00;98.20;;;;;;6135460;23;21151;-78
2022/08/05 09:32:20;;;;;;;1.50;1.00;;;19.10;98.20;;;;;;6119402;23;20440;-78
2022/08/05 09:35:26;;;;;;;1.60;1.13;;;19.10;98.20;;;;;;6151139;23;20421;-78
2022/08/05 09:37:56;;;;;;;1.50;0.90;;;19.10;98.20;;;;;;6145028;23;20483;-77
2022/08/05 09:41:09;;;;;;;1.50;0.90;;;19.30;98.20;;;;;;6146118;23;20449;-78
2022/08/05 09:43:48;;;;;;;1.50;1.00;;;19.30;98.20;;;;;;6145435;23;20437;-79
2022/08/05 09:46:54;;;;;;;1.50;0.90;;;19.30;98.20;;;;;;6127773;23;20473;-78
2022/08/05 09:53:18;;;;;;;2.37;1.37;;;19.40;98.20;;;;;;6043842;23;20446;-78
2022/08/05 09:56:29;;;;;;;1.50;0.97;;;19.40;98.20;;;;;;6098287;23;20425;-78
2022/08/05 10:01:52;;;;;;;1.50;0.90;;;19.40;98.20;;;;;;5983128;23;20461;-77
2022/08/05 10:04:26;;;;;;;1.50;0.90;;;19.30;98.20;;;;;;6014366;23;20457;-76
2022/08/05 10:06:59;;;;;;;1.50;0.90;;;19.40;98.20;;;;;;6023620;23;20495;-76
2022/08/05 10:09:28;;;;;;;1.50;0.90;;;19.50;98.20;;;;;;6056056;23;20450;-77
2022/08/05 10:12:07;;;;;;;1.50;1.00;;;19.60;98.20;;;;;;6131963;23;20952;-77
2022/08/05 10:14:40;;;;;;;1.50;0.90;;;19.80;98.20;;;;;;6133752;23;20809;-79
2022/08/05 10:17:14;;;;;;;1.50;0.90;;;19.80;98.20;;;;;;6141196;23;20445;-78
2022/08/05 10:19:42;;;;;;;1.50;0.90;;;19.90;98.20;;;;;;6139871;23;20497;-79
2022/08/05 10:22:10;;;;;;;1.50;0.90;;;20.10;98.20;;;;;;6132621;23;20452;-78
2022/08/05 10:24:39;;;;;;;1.50;0.90;;;20.20;98.20;;;;;;6154222;23;20416;-77
2022/08/05 10:27:08;;;;;;;1.50;0.90;;;20.50;98.20;;;;;;6131140;23;20515;-77
2022/08/05 10:29:36;;;;;;;1.50;0.90;;;20.70;98.20;;;;;;6138517;23;20426;-78
2022/08/05 10:32:06;;;;;;;1.50;0.90;;;21.00;98.20;;;;;;6131545;23;20442;-78
2022/08/05 10:34:35;;;;;;;1.50;0.90;;;21.30;98.20;;;;;;6141186;23;20489;-79
2022/08/05 10:37:03;;;;;;;1.50;0.90;;;21.50;98.20;;;;;;6133362;23;20468;-78
2022/08/05 10:39:41;;;;;;;1.50;0.90;;;21.80;98.20;;;;;;6137513;23;20454;-78
2022/08/05 10:42:15;;;;;;;1.50;0.90;;;22.00;98.20;;;;;;6128929;23;20849;-79
2022/08/05 10:44:45;;;;;;;1.50;0.90;;;22.00;98.20;;;;;;6138554;23;20496;-78
2022/08/05 10:47:16;;;;;;;1.50;0.90;;;22.10;98.20;;;;;;6130183;23;20440;-77
2022/08/05 10:50:18;;;;;;;1.50;0.90;;;22.30;98.20;;;;;;6134686;23;20445;-79
2022/08/05 10:52:52;;;;;;;1.50;0.90;;;22.60;98.20;;;;;;6130504;23;20475;-78
2022/08/05 10:55:31;;;;;;;1.50;0.87;;;22.90;98.20;;;;;;6142848;23;20516;-78
2022/08/05 10:58:13;;;;;;;1.50;0.90;;;23.30;97.40;;;;;;6140038;23;20491;-78
2022/08/05 11:00:46;;;;;;;1.50;0.90;;;23.60;94.90;;;;;;6131452;23;20556;-78
2022/08/05 11:03:15;;;;;;;1.50;0.90;;;23.90;93.40;;;;;;6088092;23;20429;-78
2022/08/05 11:28:47;;;;;;;1.50;0.90;;;24.90;87.80;;;;;;6079542;23;20501;-78
2022/08/05 11:31:31;;;;;;;1.50;0.80;;;25.10;89.00;;;;;;6100298;23;20714;-78
2022/08/05 11:34:10;;;;;;;1.50;0.90;;;25.20;88.00;;;;;;6098886;23;20423;-78
2022/08/05 11:36:55;;;;;;;1.50;0.90;;;25.50;86.20;;;;;;6115506;23;20457;-78
2022/08/05 11:39:49;;;;;;;1.50;0.87;;;25.70;86.60;;;;;;6099744;23;20586;-79
2022/08/05 11:42:22;;;;;;;1.50;0.90;;;25.80;84.40;;;;;;6075324;23;20969;-79
2022/08/05 11:44:54;;;;;;;1.50;0.80;;;25.90;86.20;;;;;;6112231;23;20431;-77
2022/08/05 11:47:23;;;;;;;1.50;0.80;;;25.90;84.00;;;;;;6089456;23;20446;-78
2022/08/05 11:49:59;;;;;;;1.47;0.90;;;25.90;84.90;;;;;;6099525;23;20433;-78
2022/08/05 11:52:31;;;;;;;1.50;0.90;;;26.20;85.00;;;;;;6084956;23;20473;-78
2022/08/05 11:54:59;;;;;;;1.50;0.90;;;26.20;82.20;;;;;;6109369;23;20686;-78
2022/08/05 11:57:35;;;;;;;1.50;0.90;;;26.20;84.40;;;;;;6100079;23;20486;-78
2022/08/05 12:00:09;;;;;;;1.50;0.80;;;26.50;83.90;;;;;;6107599;23;20417;-77
2022/08/05 12:02:36;;;;;;;1.47;0.80;;;26.80;82.70;;;;;;6086102;23;20446;-76
2022/08/05 12:05:05;;;;;;;1.50;0.87;;;27.10;83.10;;;;;;6109685;23;20424;-77
2022/08/05 12:07:35;;;;;;;1.40;0.90;;;27.10;82.10;;;;;;6088873;23;20450;-78
2022/08/05 12:10:08;;;;;;;1.40;0.80;;;27.10;81.80;;;;;;6093038;23;20787;-77
2022/08/05 12:12:40;;;;;;;1.50;0.90;;;27.10;81.10;;;;;;6085989;23;20449;-78
2022/08/05 12:15:20;;;;;;;1.43;0.80;;;27.20;81.00;;;;;;6099232;23;20415;-78
2022/08/05 12:17:48;;;;;;;1.50;0.90;;;27.10;80.70;;;;;;6101770;23;20417;-77
2022/08/05 12:20:16;;;;;;;1.47;0.80;;;27.10;81.80;;;;;;6108863;23;20440;-77
2022/08/05 12:22:46;;;;;;;1.40;0.90;;;27.10;81.80;;;;;;6110432;23;20788;-77
2022/08/05 12:25:14;;;;;;;1.80;1.53;;;27.00;81.90;;;;;;6108939;23;20513;-78
2022/08/05 12:27:47;;;;;;;1.47;0.90;;;26.80;82.40;;;;;;6079784;23;20454;-77
2022/08/05 12:30:17;;;;;;;1.50;0.80;;;26.70;81.50;;;;;;6104545;23;20402;-77
2022/08/05 12:32:49;;;;;;;1.40;0.80;;;26.50;82.80;;;;;;6109680;23;20928;-76
2022/08/05 12:35:17;;;;;;;1.47;0.90;;;26.30;81.70;;;;;;6104466;23;20446;-78
2022/08/05 12:37:47;;;;;;;1.50;0.80;;;26.10;82.10;;;;;;6095370;23;20425;-78
2022/08/05 12:40:23;;;;;;;1.50;0.80;;;25.90;83.20;;;;;;6102928;23;20429;-76
2022/08/05 12:42:58;;;;;;;1.50;0.90;;;25.70;83.80;;;;;;6078665;23;20757;-77
2022/08/05 12:45:27;;;;;;;1.47;0.90;;;25.60;85.20;;;;;;6093626;23;20478;-76
2022/08/05 12:47:55;;;;;;;1.50;0.90;;;25.50;84.80;;;;;;6078729;23;20865;-77
2022/08/05 12:50:23;;;;;;;1.50;0.90;;;25.60;85.50;;;;;;6103519;23;20426;-76
2022/08/05 12:53:00;;;;;;;1.47;0.80;;;25.90;86.00;;;;;;6081037;23;20521;-76
2022/08/05 12:55:35;;;;;;;1.50;0.90;;;26.20;82.60;;;;;;6104990;23;20472;-77
2022/08/05 12:58:05;;;;;;;1.50;0.80;;;26.20;83.20;;;;;;6082352;23;20468;-78
2022/08/05 13:00:42;;;;;;;1.47;0.90;;;26.20;83.40;;;;;;6098521;23;20426;-77
2022/08/05 13:03:16;;;;;;;1.50;0.80;;;26.30;82.40;;;;;;6083617;23;20465;-77
2022/08/05 13:05:48;;;;;;;1.47;0.90;;;26.40;83.90;;;;;;6107691;23;20446;-77
2022/08/05 13:08:18;;;;;;;1.47;0.87;;;26.60;82.80;;;;;;6060590;23;20456;-77
2022/08/05 13:10:46;;;;;;;1.50;0.80;;;26.70;80.80;;;;;;6100708;23;20410;-76
2022/08/05 13:13:19;;;;;;;1.47;0.80;;;26.70;81.90;;;;;;6105624;23;20963;-78
2022/08/05 13:16:11;;;;;;;1.47;0.80;;;26.80;81.20;;;;;;6098005;23;20446;-78
2022/08/05 13:18:40;;;;;;;1.47;0.87;;;26.80;79.90;;;;;;6082593;23;20426;-79
2022/08/05 13:21:16;;;;;;;1.43;0.80;;;26.70;80.60;;;;;;6083765;23;20494;-78
2022/08/05 13:23:44;;;;;;;1.47;0.83;;;26.70;81.10;;;;;;6114179;23;20403;-78
2022/08/05 13:26:12;;;;;;;1.50;0.80;;;26.70;79.40;;;;;;6091787;23;20449;-77
2022/08/05 13:28:42;;;;;;;1.47;0.80;;;26.50;80.30;;;;;;6106128;23;20516;-77
2022/08/05 13:31:10;;;;;;;1.60;1.20;;;26.40;80.30;;;;;;6085172;23;20449;-78
2022/08/05 13:33:38;;;;;;;1.50;1.00;;;26.30;82.00;;;;;;6107205;23;20426;-77
2022/08/05 13:36:05;;;;;;;1.50;0.80;;;26.20;80.50;;;;;;6106923;23;20449;-78
2022/08/05 13:38:33;;;;;;;1.40;0.90;;;26.10;80.10;;;;;;6109482;23;20422;-78
2022/08/05 13:41:17;;;;;;;1.40;0.90;;;25.90;82.00;;;;;;6109926;23;20528;-78
2022/08/05 13:43:50;;;;;;;1.43;0.80;;;25.80;82.30;;;;;;6109644;23;20817;-78
2022/08/05 13:46:21;;;;;;;1.47;0.90;;;25.60;82.00;;;;;;6084771;23;20683;-76
2022/08/05 13:48:52;;;;;;;1.50;0.90;;;25.30;82.90;;;;;;6099438;23;20442;-78
2022/08/05 13:51:33;;;;;;;1.50;0.90;;;25.00;85.00;;;;;;6087692;23;20445;-78
2022/08/05 13:54:08;;;;;;;1.50;0.90;;;24.70;86.90;;;;;;6098028;23;20461;-77
2022/08/05 13:56:38;;;;;;;1.50;0.90;;;24.40;87.30;;;;;;6090166;23;20665;-77
2022/08/05 13:59:10;;;;;;;1.50;0.90;;;24.20;88.80;;;;;;6109880;23;20425;-77
2022/08/05 14:01:46;;;;;;;1.50;0.90;;;24.00;88.80;;;;;;6101327;23;20438;-78
2022/08/05 14:07:04;;;;;;;1.50;0.90;;;23.80;91.00;;;;;;6076701;23;20517;-78
2022/08/05 14:09:33;;;;;;;1.50;0.90;;;23.80;87.60;;;;;;6093151;23;20581;-78
2022/08/05 14:12:01;;;;;;;1.43;0.80;;;23.90;85.00;;;;;;6097488;23;20461;-77
2022/08/05 14:14:29;;;;;;;1.47;0.80;;;24.00;82.30;;;;;;6103339;23;20426;-77
2022/08/05 14:17:00;;;;;;;1.47;0.90;;;24.10;82.80;;;;;;6084310;23;20997;-77
2022/08/05 14:19:28;;;;;;;1.50;0.90;;;24.20;81.10;;;;;;6097094;23;20458;-78
2022/08/05 14:22:06;;;;;;;1.43;0.80;;;24.20;80.40;;;;;;6079182;23;20457;-78
2022/08/05 14:24:34;;;;;;;1.43;0.90;;;24.20;80.10;;;;;;6096559;23;20438;-77
2022/08/05 14:27:02;;;;;;;1.50;0.83;;;24.30;79.10;;;;;;6079208;23;20459;-78
2022/08/05 14:29:30;;;;;;;1.43;0.80;;;24.30;79.00;;;;;;6103614;23;20507;-77
2022/08/05 14:32:02;;;;;;;1.50;0.80;;;24.40;79.80;;;;;;6085066;23;20454;-78
2022/08/05 14:34:29;;;;;;;1.43;0.90;;;24.50;80.40;;;;;;6101252;23;20465;-75
2022/08/05 14:36:59;;;;;;;1.50;0.90;;;24.70;79.50;;;;;;6094088;23;20446;-77
2022/08/05 14:39:26;;;;;;;1.50;0.90;;;24.70;79.90;;;;;;6108162;23;20418;-77
2022/08/05 14:41:54;;;;;;;1.47;0.90;;;24.80;80.50;;;;;;6084996;23;20482;-77
2022/08/05 14:44:21;;;;;;;1.50;0.90;;;24.80;81.00;;;;;;6093450;23;20430;-77
2022/08/05 14:46:51;;;;;;;1.60;1.40;;;24.90;79.40;;;;;;6104496;23;20826;-77
2022/08/05 14:49:21;;;;;;;1.47;0.90;;;24.90;79.30;;;;;;6106005;23;20493;-78
2022/08/05 14:51:51;;;;;;;1.43;0.90;;;24.90;80.10;;;;;;6080458;23;20455;-77
2022/08/05 14:54:19;;;;;;;1.47;0.90;;;25.00;79.90;;;;;;6103430;23;20423;-78
2022/08/05 14:56:50;;;;;;;1.50;0.90;;;24.80;80.30;;;;;;6079483;23;20500;-77
2022/08/05 14:59:19;;;;;;;1.47;0.90;;;24.80;79.80;;;;;;6103966;23;20422;-77